AFL1182 UUEE-URWW
Flight info
| Callsign | AFL1182 |
|---|---|
| Flight time | 1h 26m |
| Altitude | 35000 |
| Route | TOGMO M56 ABAGI W21 NATIT |
| Aircraft | A321/M-SDE3FGHIRWY/LB1 |
Departure
| Time | 2026-04-22 16:48 |
|---|---|
| Airport | Sheremetyevo International Airport (UUEE) |
Arrival
| Time | 2026-04-22 18:15 |
|---|---|
| Airport | Volgograd International Airport (URWW) |
| Time | Latitude | Longitude | Altitude | Speed | Heading |
|---|---|---|---|---|---|
| 2026-04-22 16:15 | 55.97828 | 37.40987 | 639 ft | 0 kts | 76° |
| 2026-04-22 16:35 | 55.97828 | 37.40984 | 639 ft | 1 kts | 76° |
| 2026-04-22 16:35 | 55.97824 | 37.40954 | 647 ft | 3 kts | 80° |
| 2026-04-22 16:35 | 55.97821 | 37.40919 | 641 ft | 3 kts | 87° |
| 2026-04-22 16:35 | 55.97821 | 37.40884 | 642 ft | 3 kts | 96° |
| 2026-04-22 16:36 | 55.97824 | 37.40849 | 640 ft | 3 kts | 114° |
| 2026-04-22 16:36 | 55.97833 | 37.40822 | 641 ft | 3 kts | 146° |
| 2026-04-22 16:36 | 55.97841 | 37.40813 | 643 ft | 0 kts | 165° |
| 2026-04-22 16:40 | 55.97813 | 37.40827 | 632 ft | 9 kts | 165° |
| 2026-04-22 16:41 | 55.97743 | 37.40859 | 639 ft | 15 kts | 166° |
| 2026-04-22 16:41 | 55.97643 | 37.40907 | 639 ft | 14 kts | 165° |
| 2026-04-22 16:41 | 55.97602 | 37.41022 | 639 ft | 11 kts | 80° |
| 2026-04-22 16:41 | 55.97593 | 37.41136 | 641 ft | 9 kts | 139° |
| 2026-04-22 16:42 | 55.97547 | 37.41188 | 646 ft | 7 kts | 120° |
| 2026-04-22 16:42 | 55.97552 | 37.41298 | 643 ft | 10 kts | 75° |
| 2026-04-22 16:42 | 55.97572 | 37.41437 | 644 ft | 16 kts | 75° |
| 2026-04-22 16:42 | 55.97610 | 37.41687 | 642 ft | 25 kts | 75° |
| 2026-04-22 16:43 | 55.97658 | 37.42009 | 640 ft | 23 kts | 75° |
| 2026-04-22 16:43 | 55.97699 | 37.42283 | 639 ft | 22 kts | 75° |
| 2026-04-22 16:43 | 55.97738 | 37.42547 | 640 ft | 22 kts | 75° |
| 2026-04-22 16:43 | 55.97777 | 37.42801 | 645 ft | 21 kts | 75° |
| 2026-04-22 16:44 | 55.97812 | 37.43044 | 641 ft | 20 kts | 76° |
| 2026-04-22 16:44 | 55.97847 | 37.43274 | 641 ft | 19 kts | 75° |
| 2026-04-22 16:44 | 55.97879 | 37.43491 | 645 ft | 18 kts | 75° |
| 2026-04-22 16:44 | 55.97911 | 37.43694 | 645 ft | 16 kts | 75° |
| 2026-04-22 16:45 | 55.97938 | 37.43879 | 645 ft | 15 kts | 75° |
| 2026-04-22 16:45 | 55.97931 | 37.44022 | 645 ft | 8 kts | 140° |
| 2026-04-22 16:45 | 55.97913 | 37.44037 | 642 ft | 0 kts | 160° |
| 2026-04-22 16:46 | 55.97912 | 37.44037 | 642 ft | 1 kts | 160° |
| 2026-04-22 16:46 | 55.97878 | 37.44056 | 639 ft | 7 kts | 165° |
| 2026-04-22 16:46 | 55.97827 | 37.44078 | 643 ft | 9 kts | 168° |
| 2026-04-22 16:46 | 55.97780 | 37.44008 | 642 ft | 10 kts | 250° |
| 2026-04-22 16:47 | 55.97776 | 37.43985 | 640 ft | 0 kts | 254° |
| 2026-04-22 16:47 | 55.97768 | 37.43934 | 641 ft | 20 kts | 254° |
| 2026-04-22 16:47 | 55.97665 | 37.43250 | 639 ft | 91 kts | 255° |
| 2026-04-22 16:48 | 55.97455 | 37.41838 | 640 ft | 144 kts | 255° |
| 2026-04-22 16:48 | 55.97167 | 37.39904 | 682 ft | 179 kts | 255° |
| 2026-04-22 16:48 | 55.96833 | 37.37724 | 1201 ft | 175 kts | 256° |
| 2026-04-22 16:48 | 55.96491 | 37.35659 | 1712 ft | 177 kts | 258° |
| 2026-04-22 16:49 | 55.96145 | 37.33481 | 2164 ft | 192 kts | 258° |
| 2026-04-22 16:49 | 55.95770 | 37.31059 | 2381 ft | 213 kts | 258° |
| 2026-04-22 16:49 | 55.95354 | 37.28362 | 2618 ft | 239 kts | 258° |
| 2026-04-22 16:49 | 55.94892 | 37.25386 | 3085 ft | 259 kts | 257° |
| 2026-04-22 16:50 | 55.94398 | 37.22234 | 3925 ft | 265 kts | 257° |
| 2026-04-22 16:50 | 55.93894 | 37.19052 | 4834 ft | 269 kts | 257° |
| 2026-04-22 16:50 | 55.93379 | 37.15825 | 5746 ft | 272 kts | 257° |
| 2026-04-22 16:50 | 55.92860 | 37.12568 | 6610 ft | 275 kts | 257° |
| 2026-04-22 16:51 | 55.92333 | 37.09256 | 7408 ft | 280 kts | 257° |
| 2026-04-22 16:51 | 55.91820 | 37.05868 | 8195 ft | 285 kts | 262° |
| 2026-04-22 16:51 | 55.91833 | 37.02370 | 8943 ft | 284 kts | 287° |
| 2026-04-22 16:51 | 55.92635 | 36.99189 | 9702 ft | 282 kts | 311° |
| 2026-04-22 16:52 | 55.94056 | 36.96838 | 10420 ft | 279 kts | 328° |
| 2026-04-22 16:52 | 55.95669 | 36.94860 | 11202 ft | 282 kts | 328° |
| 2026-04-22 16:52 | 55.97358 | 36.93091 | 11960 ft | 283 kts | 341° |
| 2026-04-22 16:52 | 55.99246 | 36.92365 | 12703 ft | 283 kts | 359° |
| 2026-04-22 16:53 | 56.01199 | 36.92813 | 13441 ft | 286 kts | 18° |
| 2026-04-22 16:53 | 56.02984 | 36.94403 | 14107 ft | 290 kts | 32° |
| 2026-04-22 16:53 | 56.04683 | 36.96401 | 14784 ft | 293 kts | 32° |
| 2026-04-22 16:53 | 56.06391 | 36.98407 | 15458 ft | 296 kts | 32° |
| 2026-04-22 16:54 | 56.08125 | 37.00441 | 16143 ft | 299 kts | 32° |
| 2026-04-22 16:54 | 56.09845 | 37.02576 | 16813 ft | 304 kts | 39° |
| 2026-04-22 16:54 | 56.11310 | 37.05344 | 17471 ft | 309 kts | 52° |
| 2026-04-22 16:54 | 56.12403 | 37.08774 | 17740 ft | 329 kts | 66° |
| 2026-04-22 16:55 | 56.13046 | 37.12807 | 18100 ft | 341 kts | 74° |
| 2026-04-22 16:55 | 56.13593 | 37.16995 | 18473 ft | 353 kts | 78° |
| 2026-04-22 16:55 | 56.13552 | 37.21505 | 18598 ft | 375 kts | 100° |
| 2026-04-22 16:55 | 56.12520 | 37.25902 | 18730 ft | 395 kts | 123° |
| 2026-04-22 16:56 | 56.10523 | 37.29410 | 18875 ft | 413 kts | 145° |
| 2026-04-22 16:56 | 56.08049 | 37.32136 | 19230 ft | 420 kts | 148° |
| 2026-04-22 16:56 | 56.05521 | 37.34802 | 19708 ft | 424 kts | 148° |
| 2026-04-22 16:56 | 56.02976 | 37.37448 | 20204 ft | 427 kts | 149° |
| 2026-04-22 16:57 | 56.00381 | 37.40141 | 20707 ft | 430 kts | 149° |
| 2026-04-22 16:57 | 55.97783 | 37.42841 | 21198 ft | 433 kts | 149° |
| 2026-04-22 16:57 | 55.95172 | 37.45567 | 21697 ft | 437 kts | 148° |
| 2026-04-22 16:57 | 55.92545 | 37.48324 | 22189 ft | 440 kts | 148° |
| 2026-04-22 16:58 | 55.90798 | 37.50160 | 22500 ft | 442 kts | 148° |
| 2026-04-22 16:58 | 55.87243 | 37.53891 | 23139 ft | 446 kts | 148° |
| 2026-04-22 16:58 | 55.84557 | 37.56703 | 23543 ft | 448 kts | 148° |
| 2026-04-22 16:58 | 55.81858 | 37.59525 | 23949 ft | 450 kts | 148° |
| 2026-04-22 16:59 | 55.79144 | 37.62353 | 24370 ft | 453 kts | 148° |
| 2026-04-22 16:59 | 55.76422 | 37.65182 | 24788 ft | 454 kts | 149° |
| 2026-04-22 16:59 | 55.73719 | 37.67983 | 25188 ft | 456 kts | 149° |
| 2026-04-22 16:59 | 55.70938 | 37.70863 | 25589 ft | 458 kts | 149° |
| 2026-04-22 17:00 | 55.68214 | 37.73681 | 25974 ft | 460 kts | 149° |
| 2026-04-22 17:00 | 55.62650 | 37.79414 | 26736 ft | 464 kts | 149° |
| 2026-04-22 17:00 | 55.59856 | 37.82294 | 27112 ft | 467 kts | 149° |
| 2026-04-22 17:01 | 55.57047 | 37.85192 | 27495 ft | 468 kts | 149° |
| 2026-04-22 17:01 | 55.54224 | 37.88100 | 27905 ft | 469 kts | 149° |
| 2026-04-22 17:01 | 55.51376 | 37.91024 | 28426 ft | 467 kts | 149° |
| 2026-04-22 17:01 | 55.48611 | 37.93855 | 28938 ft | 465 kts | 149° |
| 2026-04-22 17:02 | 55.45776 | 37.96749 | 29455 ft | 463 kts | 149° |
| 2026-04-22 17:02 | 55.43030 | 37.99542 | 29894 ft | 462 kts | 149° |
| 2026-04-22 17:02 | 55.40247 | 38.02365 | 30290 ft | 461 kts | 149° |
| 2026-04-22 17:02 | 55.37467 | 38.05184 | 30660 ft | 461 kts | 149° |
| 2026-04-22 17:03 | 55.34695 | 38.07996 | 31059 ft | 460 kts | 149° |
| 2026-04-22 17:03 | 55.31920 | 38.10810 | 31445 ft | 459 kts | 149° |
| 2026-04-22 17:03 | 55.29146 | 38.13612 | 31806 ft | 459 kts | 149° |
| 2026-04-22 17:03 | 55.26380 | 38.16402 | 32164 ft | 459 kts | 149° |
| 2026-04-22 17:04 | 55.24506 | 38.18290 | 32419 ft | 459 kts | 149° |
| 2026-04-22 17:04 | 55.20843 | 38.21981 | 32903 ft | 459 kts | 149° |
| 2026-04-22 17:04 | 55.18082 | 38.24763 | 33272 ft | 458 kts | 149° |
| 2026-04-22 17:04 | 55.15315 | 38.27545 | 33611 ft | 458 kts | 149° |
| 2026-04-22 17:05 | 55.12550 | 38.30314 | 33887 ft | 458 kts | 149° |
| 2026-04-22 17:05 | 55.09785 | 38.33077 | 34168 ft | 458 kts | 149° |
| 2026-04-22 17:05 | 55.07015 | 38.35840 | 34442 ft | 458 kts | 149° |
| 2026-04-22 17:05 | 55.04243 | 38.38602 | 34604 ft | 459 kts | 149° |
| 2026-04-22 17:06 | 54.98713 | 38.44096 | 34645 ft | 457 kts | 150° |
| 2026-04-22 17:06 | 54.93190 | 38.49568 | 34646 ft | 457 kts | 150° |
| 2026-04-22 17:07 | 54.87666 | 38.55033 | 34654 ft | 457 kts | 150° |
| 2026-04-22 17:07 | 54.82137 | 38.60477 | 34652 ft | 457 kts | 150° |
| 2026-04-22 17:08 | 54.76599 | 38.65909 | 34651 ft | 457 kts | 150° |
| 2026-04-22 17:08 | 54.71069 | 38.71311 | 34655 ft | 457 kts | 150° |
| 2026-04-22 17:09 | 54.65529 | 38.76704 | 34656 ft | 457 kts | 150° |
| 2026-04-22 17:09 | 54.59991 | 38.82106 | 34657 ft | 457 kts | 150° |
| 2026-04-22 17:10 | 54.55384 | 38.86573 | 34660 ft | 457 kts | 150° |
| 2026-04-22 17:10 | 54.49839 | 38.91928 | 34660 ft | 457 kts | 150° |
| 2026-04-22 17:11 | 54.44296 | 38.97292 | 34662 ft | 457 kts | 148° |
| 2026-04-22 17:11 | 54.39451 | 39.04260 | 34662 ft | 455 kts | 129° |
| 2026-04-22 17:12 | 54.36198 | 39.13483 | 34664 ft | 453 kts | 111° |
| 2026-04-22 17:12 | 54.33812 | 39.23492 | 34667 ft | 454 kts | 111° |
| 2026-04-22 17:13 | 54.31397 | 39.33486 | 34664 ft | 454 kts | 112° |
| 2026-04-22 17:13 | 54.28964 | 39.43475 | 34666 ft | 455 kts | 112° |
| 2026-04-22 17:14 | 54.26522 | 39.53465 | 34671 ft | 455 kts | 112° |
| 2026-04-22 17:14 | 54.24072 | 39.63457 | 34675 ft | 456 kts | 112° |
| 2026-04-22 17:15 | 54.21614 | 39.73450 | 34681 ft | 456 kts | 112° |
| 2026-04-22 17:15 | 54.18923 | 39.83239 | 34676 ft | 456 kts | 125° |
| 2026-04-22 17:16 | 54.14613 | 39.91164 | 34682 ft | 457 kts | 135° |
| 2026-04-22 17:16 | 54.10082 | 39.98764 | 34684 ft | 457 kts | 135° |
| 2026-04-22 17:17 | 54.05524 | 40.06346 | 34688 ft | 457 kts | 135° |
| 2026-04-22 17:17 | 54.00979 | 40.13926 | 34689 ft | 458 kts | 135° |
| 2026-04-22 17:18 | 53.96434 | 40.21501 | 34690 ft | 458 kts | 135° |
| 2026-04-22 17:18 | 53.91879 | 40.29075 | 34694 ft | 459 kts | 135° |
| 2026-04-22 17:19 | 53.82770 | 40.44135 | 34706 ft | 459 kts | 135° |
| 2026-04-22 17:20 | 53.73610 | 40.59185 | 34704 ft | 459 kts | 136° |
| 2026-04-22 17:21 | 53.66720 | 40.70423 | 34709 ft | 459 kts | 136° |
| 2026-04-22 17:22 | 53.59824 | 40.81651 | 34711 ft | 460 kts | 136° |
| 2026-04-22 17:23 | 53.53154 | 40.92432 | 34710 ft | 459 kts | 136° |
| 2026-04-22 17:23 | 53.46223 | 41.03586 | 34713 ft | 460 kts | 136° |
| 2026-04-22 17:24 | 53.41593 | 41.11017 | 34716 ft | 460 kts | 136° |
| 2026-04-22 17:24 | 53.36959 | 41.18432 | 34724 ft | 461 kts | 136° |
| 2026-04-22 17:25 | 53.32315 | 41.25828 | 34725 ft | 461 kts | 137° |
| 2026-04-22 17:25 | 53.27663 | 41.33209 | 34732 ft | 461 kts | 137° |
| 2026-04-22 17:26 | 53.23048 | 41.40515 | 34730 ft | 461 kts | 137° |
| 2026-04-22 17:26 | 53.18432 | 41.47809 | 34730 ft | 460 kts | 137° |
| 2026-04-22 17:27 | 53.13769 | 41.55145 | 34734 ft | 461 kts | 137° |
| 2026-04-22 17:27 | 53.09104 | 41.62446 | 34736 ft | 461 kts | 137° |
| 2026-04-22 17:28 | 53.04436 | 41.69754 | 34745 ft | 461 kts | 137° |
| 2026-04-22 17:28 | 52.99758 | 41.77041 | 34744 ft | 461 kts | 137° |
| 2026-04-22 17:29 | 52.95087 | 41.84317 | 34750 ft | 461 kts | 137° |
| 2026-04-22 17:29 | 52.90406 | 41.91573 | 34750 ft | 461 kts | 137° |
| 2026-04-22 17:30 | 52.85711 | 41.98820 | 34758 ft | 461 kts | 137° |
| 2026-04-22 17:30 | 52.81014 | 42.06041 | 34757 ft | 461 kts | 137° |
| 2026-04-22 17:31 | 52.76311 | 42.13251 | 34764 ft | 461 kts | 137° |
| 2026-04-22 17:31 | 52.71618 | 42.20451 | 34761 ft | 461 kts | 138° |
| 2026-04-22 17:32 | 52.66938 | 42.27601 | 34766 ft | 461 kts | 138° |
| 2026-04-22 17:32 | 52.62229 | 42.34766 | 34762 ft | 461 kts | 138° |
| 2026-04-22 17:33 | 52.57507 | 42.41906 | 34763 ft | 461 kts | 138° |
| 2026-04-22 17:33 | 52.52780 | 42.49040 | 34761 ft | 461 kts | 138° |
| 2026-04-22 17:34 | 52.48098 | 42.56087 | 34762 ft | 461 kts | 138° |
| 2026-04-22 17:34 | 52.43374 | 42.63197 | 34761 ft | 461 kts | 138° |
| 2026-04-22 17:35 | 52.38648 | 42.70288 | 34761 ft | 461 kts | 139° |
| 2026-04-22 17:35 | 52.33919 | 42.77360 | 34758 ft | 461 kts | 139° |
| 2026-04-22 17:36 | 52.29180 | 42.84411 | 34759 ft | 461 kts | 139° |
| 2026-04-22 17:36 | 52.24436 | 42.91441 | 34763 ft | 461 kts | 139° |
| 2026-04-22 17:37 | 52.19684 | 42.98473 | 34766 ft | 461 kts | 139° |
| 2026-04-22 17:37 | 52.14923 | 43.05494 | 34768 ft | 462 kts | 139° |
| 2026-04-22 17:38 | 52.10161 | 43.12502 | 34770 ft | 462 kts | 139° |
| 2026-04-22 17:38 | 52.05390 | 43.19492 | 34823 ft | 462 kts | 139° |
| 2026-04-22 17:39 | 52.00619 | 43.26462 | 34781 ft | 461 kts | 139° |
| 2026-04-22 17:40 | 51.93462 | 43.36894 | 34765 ft | 461 kts | 139° |
| 2026-04-22 17:40 | 51.88677 | 43.43843 | 34768 ft | 462 kts | 139° |
| 2026-04-22 17:41 | 51.83890 | 43.50781 | 34771 ft | 462 kts | 139° |
| 2026-04-22 17:41 | 51.79092 | 43.57702 | 34771 ft | 463 kts | 139° |
| 2026-04-22 17:42 | 51.74279 | 43.64608 | 34774 ft | 463 kts | 140° |
| 2026-04-22 17:42 | 51.70276 | 43.70347 | 34771 ft | 463 kts | 140° |
| 2026-04-22 17:43 | 51.64648 | 43.78402 | 34771 ft | 463 kts | 140° |
| 2026-04-22 17:43 | 51.59823 | 43.85283 | 34763 ft | 463 kts | 140° |
| 2026-04-22 17:44 | 51.54991 | 43.92152 | 34763 ft | 464 kts | 140° |
| 2026-04-22 17:44 | 51.50158 | 43.98998 | 34760 ft | 464 kts | 140° |
| 2026-04-22 17:45 | 51.45319 | 44.05847 | 34755 ft | 464 kts | 140° |
| 2026-04-22 17:45 | 51.40468 | 44.12665 | 34756 ft | 464 kts | 140° |
| 2026-04-22 17:46 | 51.35614 | 44.19476 | 34754 ft | 464 kts | 140° |
| 2026-04-22 17:46 | 51.30760 | 44.26296 | 34757 ft | 464 kts | 141° |
| 2026-04-22 17:47 | 51.25899 | 44.33091 | 34754 ft | 465 kts | 141° |
| 2026-04-22 17:47 | 51.21008 | 44.39844 | 34754 ft | 464 kts | 144° |
| 2026-04-22 17:48 | 51.16428 | 44.44109 | 34746 ft | 458 kts | 161° |
| 2026-04-22 17:48 | 51.12350 | 44.45899 | 34746 ft | 452 kts | 174° |
| 2026-04-22 17:48 | 51.09226 | 44.46236 | 34745 ft | 449 kts | 184° |
| 2026-04-22 17:49 | 51.03002 | 44.45649 | 34746 ft | 449 kts | 186° |
| 2026-04-22 17:49 | 50.96760 | 44.45081 | 34746 ft | 449 kts | 186° |
| 2026-04-22 17:50 | 50.90552 | 44.44523 | 34752 ft | 450 kts | 186° |
| 2026-04-22 17:50 | 50.84303 | 44.43958 | 34762 ft | 450 kts | 186° |
| 2026-04-22 17:51 | 50.78051 | 44.43378 | 34767 ft | 450 kts | 186° |
| 2026-04-22 17:51 | 50.71804 | 44.42807 | 34773 ft | 450 kts | 186° |
| 2026-04-22 17:52 | 50.65566 | 44.42222 | 34777 ft | 449 kts | 186° |
| 2026-04-22 17:52 | 50.59329 | 44.41633 | 34775 ft | 448 kts | 186° |
| 2026-04-22 17:53 | 50.53096 | 44.41065 | 34778 ft | 448 kts | 186° |
| 2026-04-22 17:53 | 50.47881 | 44.40586 | 34722 ft | 449 kts | 186° |
| 2026-04-22 17:53 | 50.44765 | 44.40304 | 34481 ft | 447 kts | 186° |
| 2026-04-22 17:54 | 50.41659 | 44.40020 | 34253 ft | 447 kts | 186° |
| 2026-04-22 17:54 | 50.38560 | 44.39736 | 34028 ft | 446 kts | 187° |
| 2026-04-22 17:54 | 50.35457 | 44.39452 | 33577 ft | 447 kts | 187° |
| 2026-04-22 17:54 | 50.32370 | 44.39171 | 32582 ft | 453 kts | 187° |
| 2026-04-22 17:55 | 50.29220 | 44.38886 | 31710 ft | 455 kts | 187° |
| 2026-04-22 17:55 | 50.26009 | 44.38595 | 30761 ft | 458 kts | 187° |
| 2026-04-22 17:55 | 50.22821 | 44.38303 | 29822 ft | 460 kts | 187° |
| 2026-04-22 17:55 | 50.19658 | 44.38017 | 28708 ft | 461 kts | 187° |
| 2026-04-22 17:56 | 50.16454 | 44.37727 | 27657 ft | 462 kts | 187° |
| 2026-04-22 17:56 | 50.13247 | 44.37438 | 26582 ft | 462 kts | 187° |
| 2026-04-22 17:56 | 50.10026 | 44.37151 | 25397 ft | 465 kts | 186° |
| 2026-04-22 17:56 | 50.06792 | 44.36866 | 24383 ft | 465 kts | 186° |
| 2026-04-22 17:57 | 50.03592 | 44.36591 | 23738 ft | 457 kts | 186° |
| 2026-04-22 17:57 | 50.00426 | 44.36319 | 22857 ft | 454 kts | 186° |
| 2026-04-22 17:57 | 49.97294 | 44.36040 | 22139 ft | 446 kts | 186° |
| 2026-04-22 17:57 | 49.94222 | 44.35759 | 21445 ft | 439 kts | 186° |
| 2026-04-22 17:58 | 49.91201 | 44.35481 | 20765 ft | 432 kts | 185° |
| 2026-04-22 17:58 | 49.88226 | 44.35211 | 20107 ft | 425 kts | 185° |
| 2026-04-22 17:58 | 49.85292 | 44.34946 | 19473 ft | 419 kts | 185° |
| 2026-04-22 17:58 | 49.82399 | 44.34682 | 18848 ft | 413 kts | 185° |
| 2026-04-22 17:59 | 49.79548 | 44.34426 | 18251 ft | 408 kts | 185° |
| 2026-04-22 17:59 | 49.76736 | 44.34181 | 17617 ft | 402 kts | 185° |
| 2026-04-22 17:59 | 49.73970 | 44.33941 | 17066 ft | 394 kts | 185° |
| 2026-04-22 17:59 | 49.71257 | 44.33705 | 16545 ft | 387 kts | 185° |
| 2026-04-22 18:00 | 49.69451 | 44.33547 | 16196 ft | 382 kts | 185° |
| 2026-04-22 18:00 | 49.65972 | 44.33237 | 15556 ft | 375 kts | 185° |
| 2026-04-22 18:00 | 49.63376 | 44.33002 | 15075 ft | 373 kts | 185° |
| 2026-04-22 18:00 | 49.60796 | 44.32770 | 14606 ft | 370 kts | 185° |
| 2026-04-22 18:01 | 49.58229 | 44.32541 | 14137 ft | 369 kts | 185° |
| 2026-04-22 18:01 | 49.55675 | 44.32351 | 13632 ft | 367 kts | 184° |
| 2026-04-22 18:01 | 49.53126 | 44.32308 | 13091 ft | 365 kts | 182° |
| 2026-04-22 18:01 | 49.50597 | 44.32359 | 12561 ft | 363 kts | 181° |
| 2026-04-22 18:02 | 49.48080 | 44.32447 | 12039 ft | 360 kts | 181° |
| 2026-04-22 18:02 | 49.45580 | 44.32538 | 11481 ft | 358 kts | 181° |
| 2026-04-22 18:02 | 49.43099 | 44.32615 | 10981 ft | 354 kts | 181° |
| 2026-04-22 18:02 | 49.40689 | 44.32674 | 10851 ft | 339 kts | 181° |
| 2026-04-22 18:03 | 49.38379 | 44.32717 | 10721 ft | 325 kts | 182° |
| 2026-04-22 18:03 | 49.36160 | 44.32749 | 10592 ft | 313 kts | 182° |
| 2026-04-22 18:03 | 49.34025 | 44.32777 | 10463 ft | 301 kts | 182° |
| 2026-04-22 18:03 | 49.31968 | 44.32805 | 10275 ft | 292 kts | 182° |
| 2026-04-22 18:04 | 49.29948 | 44.32832 | 10018 ft | 288 kts | 182° |
| 2026-04-22 18:04 | 49.27945 | 44.32860 | 9771 ft | 287 kts | 182° |
| 2026-04-22 18:04 | 49.25956 | 44.32885 | 9634 ft | 286 kts | 182° |
| 2026-04-22 18:04 | 49.23966 | 44.32908 | 9497 ft | 286 kts | 182° |
| 2026-04-22 18:05 | 49.21982 | 44.32935 | 9352 ft | 285 kts | 182° |
| 2026-04-22 18:05 | 49.19998 | 44.32963 | 9204 ft | 285 kts | 182° |
| 2026-04-22 18:05 | 49.18015 | 44.32988 | 8865 ft | 284 kts | 182° |
| 2026-04-22 18:05 | 49.16067 | 44.33067 | 8508 ft | 284 kts | 177° |
| 2026-04-22 18:06 | 49.14137 | 44.33758 | 8133 ft | 287 kts | 161° |
| 2026-04-22 18:06 | 49.12336 | 44.35089 | 7742 ft | 288 kts | 155° |
| 2026-04-22 18:06 | 49.10711 | 44.36370 | 7548 ft | 281 kts | 155° |
| 2026-04-22 18:06 | 49.08962 | 44.37741 | 7404 ft | 269 kts | 155° |
| 2026-04-22 18:07 | 49.07330 | 44.39015 | 7276 ft | 259 kts | 156° |
| 2026-04-22 18:07 | 49.05734 | 44.40256 | 7116 ft | 248 kts | 156° |
| 2026-04-22 18:07 | 49.04216 | 44.41432 | 6718 ft | 248 kts | 156° |
| 2026-04-22 18:07 | 49.02662 | 44.42634 | 6432 ft | 243 kts | 156° |
| 2026-04-22 18:08 | 49.01173 | 44.43788 | 6136 ft | 239 kts | 156° |
| 2026-04-22 18:08 | 48.99676 | 44.44941 | 5473 ft | 251 kts | 156° |
| 2026-04-22 18:08 | 48.98080 | 44.46168 | 4790 ft | 262 kts | 155° |
| 2026-04-22 18:08 | 48.96468 | 44.47414 | 4462 ft | 256 kts | 155° |
| 2026-04-22 18:09 | 48.94902 | 44.48633 | 4153 ft | 251 kts | 156° |
| 2026-04-22 18:09 | 48.93358 | 44.49830 | 3852 ft | 246 kts | 157° |
| 2026-04-22 18:09 | 48.91850 | 44.50946 | 3660 ft | 237 kts | 158° |
| 2026-04-22 18:09 | 48.90387 | 44.52004 | 3455 ft | 229 kts | 159° |
| 2026-04-22 18:10 | 48.88963 | 44.53020 | 3255 ft | 222 kts | 161° |
| 2026-04-22 18:10 | 48.87521 | 44.53571 | 3084 ft | 205 kts | 182° |
| 2026-04-22 18:10 | 48.86184 | 44.53434 | 3003 ft | 181 kts | 200° |
| 2026-04-22 18:10 | 48.85083 | 44.52834 | 2991 ft | 160 kts | 216° |
| 2026-04-22 18:11 | 48.84196 | 44.51926 | 2912 ft | 150 kts | 230° |
| 2026-04-22 18:11 | 48.83522 | 44.50786 | 2790 ft | 142 kts | 243° |
| 2026-04-22 18:11 | 48.83061 | 44.49493 | 2610 ft | 137 kts | 251° |
| 2026-04-22 18:11 | 48.82652 | 44.48194 | 2438 ft | 136 kts | 251° |
| 2026-04-22 18:12 | 48.82250 | 44.46922 | 2255 ft | 132 kts | 251° |
| 2026-04-22 18:12 | 48.81857 | 44.45674 | 2065 ft | 130 kts | 250° |
| 2026-04-22 18:12 | 48.81598 | 44.44853 | 1946 ft | 130 kts | 250° |
| 2026-04-22 18:12 | 48.81074 | 44.43196 | 1702 ft | 130 kts | 250° |
| 2026-04-22 18:13 | 48.80683 | 44.41959 | 1514 ft | 131 kts | 250° |
| 2026-04-22 18:13 | 48.80291 | 44.40717 | 1324 ft | 131 kts | 249° |
| 2026-04-22 18:13 | 48.79896 | 44.39469 | 1128 ft | 131 kts | 248° |
| 2026-04-22 18:13 | 48.79502 | 44.38224 | 949 ft | 131 kts | 248° |
| 2026-04-22 18:14 | 48.79110 | 44.36979 | 756 ft | 130 kts | 247° |
| 2026-04-22 18:14 | 48.78713 | 44.35734 | 583 ft | 131 kts | 246° |
| 2026-04-22 18:14 | 48.78322 | 44.34507 | 466 ft | 124 kts | 246° |
| 2026-04-22 18:14 | 48.77999 | 44.33462 | 453 ft | 91 kts | 243° |
| 2026-04-22 18:15 | 48.77795 | 44.32831 | 426 ft | 46 kts | 244° |
| 2026-04-22 18:15 | 48.77660 | 44.32402 | 423 ft | 44 kts | 244° |
| 2026-04-22 18:15 | 48.77543 | 44.32036 | 417 ft | 22 kts | 244° |
| 2026-04-22 18:15 | 48.77512 | 44.31861 | 415 ft | 16 kts | 294° |
| 2026-04-22 18:16 | 48.77599 | 44.31782 | 412 ft | 13 kts | 344° |
| 2026-04-22 18:16 | 48.77660 | 44.31833 | 411 ft | 9 kts | 64° |
| 2026-04-22 18:16 | 48.77693 | 44.31936 | 412 ft | 17 kts | 64° |
| 2026-04-22 18:16 | 48.77767 | 44.32169 | 419 ft | 27 kts | 64° |
| 2026-04-22 18:17 | 48.77844 | 44.32410 | 418 ft | 25 kts | 64° |
| 2026-04-22 18:17 | 48.77914 | 44.32631 | 422 ft | 22 kts | 64° |
| 2026-04-22 18:17 | 48.77985 | 44.32853 | 426 ft | 29 kts | 64° |
| 2026-04-22 18:17 | 48.78094 | 44.33196 | 449 ft | 40 kts | 65° |
| 2026-04-22 18:18 | 48.78197 | 44.33519 | 456 ft | 31 kts | 64° |
| 2026-04-22 18:18 | 48.78279 | 44.33779 | 463 ft | 23 kts | 64° |
| 2026-04-22 18:18 | 48.78342 | 44.33980 | 468 ft | 20 kts | 63° |
| 2026-04-22 18:18 | 48.78400 | 44.34153 | 470 ft | 18 kts | 54° |
| 2026-04-22 18:19 | 48.78508 | 44.34175 | 469 ft | 17 kts | 344° |
| 2026-04-22 18:19 | 48.78630 | 44.34150 | 469 ft | 16 kts | 20° |
| 2026-04-22 18:19 | 48.78677 | 44.34283 | 469 ft | 14 kts | 69° |
| 2026-04-22 18:19 | 48.78716 | 44.34432 | 469 ft | 21 kts | 68° |
| 2026-04-22 18:20 | 48.78784 | 44.34700 | 473 ft | 29 kts | 69° |
| 2026-04-22 18:20 | 48.78846 | 44.34950 | 474 ft | 24 kts | 69° |
| 2026-04-22 18:20 | 48.78909 | 44.35105 | 477 ft | 16 kts | 42° |
| 2026-04-22 18:20 | 48.78952 | 44.35245 | 480 ft | 14 kts | 71° |
| 2026-04-22 18:21 | 48.78986 | 44.35378 | 475 ft | 13 kts | 66° |
| 2026-04-22 18:21 | 48.79031 | 44.35396 | 477 ft | 6 kts | 345° |
| 2026-04-22 18:21 | 48.79043 | 44.35389 | 480 ft | 0 kts | 340° |
| 2026-04-22 18:21 | 48.79049 | 44.35386 | 480 ft | 1 kts | 340° |